KSGH/SGH METAR and TAF weather

Enter ICAO airport designator
Station Type Date Time Source
KSGH METAR 2021/08/05 04:56 UTC NOAA

KSGH 050456Z AUTO 03003KT 10SM OVC100 18/15 A3014 RMK AO2 SLP202 T01830150 $


Station Type Date Time Source
KSGH Decoded METAR 2021/08/05 04:56 UTC NOAA

Springfield, Springfield-Beckley Municipal Airport, OH, United States (KSGH) 39-50-25N 083-50-24W
Aug 05, 2021 - 12:56 AM EDT / 2021.08.05 0456 UTC
Wind: from the NNE (030 degrees) at 3 MPH (3 KT):0
Visibility: 10 mile(s):0
Sky conditions: overcast
Temperature: 64.9 F (18.3 C)
Dew Point: 59.0 F (15.0 C)
Relative Humidity: 81%
Pressure (altimeter): 30.14 in. Hg (1020 hPa)
ob: KSGH 050456Z AUTO 03003KT 10SM OVC100 18/15 A3014 RMK AO2 SLP202 T01830150
cycle: 5

Station Type Date Time Source
KSGH TAF UTC NOAA

Error!

Example: see airport list